Terminal Aerodrome Forecast
Issued by NWS

Home | Current Version | Previous Version | Text Only | Print | Product List | Glossary On
Versions: 1 2 3 4 5 6 7 8 9 10 11 12 13 14 15 16 17
000
FTUS41 KBTV 271734
TAFSLK
TAF
KSLK 271734Z 2718/2818 32004KT P6SM BKN010 OVC015
     FM280000 00000KT P6SM BKN020 OVC040
     FM280300 00000KT 2SM -SHSN BR OVC015
     FM281000 28004KT 6SM BR BKN025 OVC040
     FM281500 26006KT P6SM OVC040=

USA.gov is the U.S. government's official web portal to all federal, state and local government web resources and services.